Flight Track Log - Related Links

Times and Time Zones

All times are in EDT time to prevent confusion due to time zone crossing. See the UAL646 flight status page for this flight to view local times or setup timezone preferences in your user account.

Time Position Orientation Groundspeed Altitude Reporting Facility
EDT Latitude Longitude Course Direction KTS MPH feet Rate Location/Type
Thu 08:27:03 PM 40.6333 -74.1833 252° West 192 221 1,900  Level New York TRACON
Thu 08:28:03 PM 40.6167 -74.2500 252° West 254 292 4,200 2,834 Climbing New York TRACON
Thu 08:29:46 PM 40.6561 -74.3956 290° West 270 311 9,600 2,473 Climbing New York Center
Thu 08:30:48 PM 40.6942 -74.5044 295° West 280 322 11,000 1,770 Climbing New York Center
Thu 08:31:48 PM 40.7306 -74.6103 294° West 329 379 13,200 2,168 Climbing New York Center
Thu 08:32:47 PM 40.7761 -74.7417 295° West 356 410 15,300 1,678 Climbing New York Center
Thu 08:33:46 PM 40.8158 -74.8564 295° West 373 429 16,500 1,361 Climbing New York Center
Thu 08:34:46 PM 40.8669 -75.0078 294° West 395 455 18,000 1,884 Climbing New York Center
Thu 08:35:47 PM 40.9119 -75.1394 294° West 401 461 20,300 1,916 Climbing New York Center
Thu 08:36:45 PM 40.9008 -75.2733 264° West 395 455 21,800 1,438 Climbing New York Center
Thu 08:37:48 PM 40.8661 -75.4139 252° West 387 445 23,200 1,500 Climbing New York Center
Thu 08:38:45 PM 40.8456 -75.5661 260° West 406 467 24,800 1,400 Climbing New York Center
Thu 08:39:48 PM 40.8600 -75.7181 277° West 413 475 26,000 1,171 Climbing New York Center
Thu 08:40:48 PM 40.8783 -75.8758 279° West 427 491 27,200 1,160 Climbing New York Center
Thu 08:41:47 PM 40.8967 -76.0308 279° West 432 497 28,300 1,271 Climbing New York Center
Thu 08:42:46 PM 40.9142 -76.1942 278° West 432 497 29,700 2,750 Climbing New York Center
Thu 08:43:47 PM 40.9267 -76.3325 277° West 417 480 33,800 2,115 Climbing New York Center
Thu 08:44:48 PM 40.9411 -76.4628 278° West 386 444 34,000 101 Climbing New York Center
Thu 08:45:46 PM 40.9556 -76.5986 278° West 375 432 34,000  Level New York Center
Thu 08:46:47 PM 40.9694 -76.7372 278° West 375 432 34,000  Level New York Center
Thu 08:47:48 PM 40.9833 -76.8733 278° West 375 432 34,000  Level New York Center
Thu 08:48:46 PM 40.9989 -77.0122 278° West 375 432 34,000  Level New York Center
Thu 08:49:47 PM 41.0125 -77.1483 278° West 375 432 34,000  Level New York Center
Thu 08:50:47 PM 41.0239 -77.2869 276° West 375 432 34,000  Level New York Center
Thu 08:51:29 PM 41.0356 -77.3836 279° West 381 438 34,000  Level Cleveland Center
Thu 08:52:31 PM 41.0478 -77.5222 277° West 384 442 34,000 48 Level Cleveland Center
Thu 08:53:33 PM 41.0639 -77.6908 277° West 385 443 34,100 48 Climbing Cleveland Center
Thu 08:54:35 PM 41.0767 -77.8328 277° West 386 444 34,100 -48 Level Cleveland Center
Thu 08:55:37 PM 41.0889 -77.9725 277° West 386 444 34,000 -48 Descending Cleveland Center
Thu 08:56:39 PM 41.1017 -78.1156 277° West 389 448 34,000  Level Cleveland Center
Thu 08:57:41 PM 41.1139 -78.2600 276° West 390 449 34,000  Level Cleveland Center
Thu 08:58:43 PM 41.1264 -78.4019 277° West 389 448 34,000  Level Cleveland Center
Thu 08:59:45 PM 41.1408 -78.5747 276° West 395 455 34,000  Level Cleveland Center
Thu 09:00:47 PM 41.1539 -78.7181 277° West 395 455 34,000  Level Cleveland Center
Thu 09:01:49 PM 41.1653 -78.8614 276° West 395 455 34,000  Level Cleveland Center
Thu 09:02:51 PM 41.1772 -79.0153 276° West 393 452 34,000  Level Cleveland Center
Thu 09:03:53 PM 41.1892 -79.1622 276° West 396 456 34,000 48 Level Cleveland Center
Thu 09:04:55 PM 41.2000 -79.2961 276° West 399 459 34,100 48 Climbing Cleveland Center
Thu 09:05:57 PM 41.2128 -79.4758 275° West 407 468 34,100  Level Cleveland Center
Thu 09:06:59 PM 41.2250 -79.6217 276° West 405 466 34,100 -49 Level Cleveland Center
Thu 09:08:00 PM 41.2369 -79.7808 276° West 406 467 34,000 -49 Descending Cleveland Center
Thu 09:09:02 PM 41.2467 -79.9269 275° West 403 464 34,000  Level Cleveland Center
Thu 09:10:04 PM 41.2578 -80.0642 276° West 402 463 34,000  Level Cleveland Center
Thu 09:11:06 PM 41.2678 -80.2119 275° West 403 464 34,000  Level Cleveland Center
Thu 09:12:08 PM 41.2792 -80.3725 275° West 406 467 34,000  Level Cleveland Center
Thu 09:13:10 PM 41.2889 -80.5233 275° West 405 466 34,000  Level Cleveland Center
Thu 09:14:12 PM 41.3003 -80.7008 275° West 409 471 34,000 49 Level Cleveland Center
Thu 09:15:13 PM 41.3103 -80.8536 275° West 411 473 34,100  Climbing Cleveland Center
Thu 09:16:15 PM 41.3108 -81.0072 270° West 412 474 34,000 -48 Descending Cleveland Center
Thu 09:17:17 PM 41.3033 -81.1597 266° West 411 473 34,000  Level Cleveland Center
Thu 09:18:19 PM 41.2919 -81.3114 264° West 410 472 34,000  Level Cleveland Center
Thu 09:19:21 PM 41.2811 -81.4719 265° West 410 472 34,000  Level Cleveland Center
Thu 09:20:22 PM 41.2708 -81.6211 265° West 410 472 34,000  Level Cleveland Center
Thu 09:21:24 PM 41.2603 -81.7733 265° West 411 473 34,000 48 Level Cleveland Center
Thu 09:22:26 PM 41.2517 -81.9222 266° West 410 472 34,100 48 Climbing Cleveland Center
Thu 09:23:28 PM 41.2425 -82.0733 265° West 409 471 34,100 -49 Level Cleveland Center
Thu 09:24:29 PM 41.2328 -82.2347 265° West 408 470 34,000 244 Descending Cleveland Center
Thu 09:25:31 PM 41.2247 -82.3869 266° West 408 470 34,600 871 Climbing Cleveland Center
Thu 09:26:33 PM 41.2175 -82.5378 266° West 408 470 35,800 677 Climbing Cleveland Center
Thu 09:27:35 PM 41.2069 -82.7150 266° West 408 470 36,000 98 Climbing Cleveland Center
Thu 09:28:36 PM 41.1981 -82.8647 266° West 408 470 36,000  Level Cleveland Center
Thu 09:29:38 PM 41.1894 -83.0164 266° West 407 468 36,000  Level Cleveland Center
Thu 09:30:40 PM 41.1836 -83.1667 267° West 407 468 36,000  Level Cleveland Center
Thu 09:31:42 PM 41.1878 -83.3167 272° West 411 473 36,000  Level Cleveland Center
Thu 09:32:43 PM 41.1914 -83.4661 272° West 409 471 36,000  Level Cleveland Center
Thu 09:33:45 PM 41.1950 -83.6175 272° West 408 470 36,000 48 Level Cleveland Center
Thu 09:34:47 PM 41.1978 -83.7692 271° West 409 471 36,100 49 Climbing Cleveland Center
Thu 09:35:48 PM 41.2006 -83.9458 271° West 409 471 36,100 -49 Level Cleveland Center
Thu 09:36:50 PM 41.2033 -84.0967 271° West 408 470 36,000 -49 Descending Cleveland Center
Thu 09:37:51 PM 41.2056 -84.2456 271° West 407 468 36,000  Level Cleveland Center
Thu 09:38:53 PM 41.2081 -84.3953 271° West 406 467 36,000  Level Cleveland Center
Thu 09:39:55 PM 41.2097 -84.5453 271° West 406 467 36,000  Level Cleveland Center
Thu 09:40:41 PM 41.2108 -84.6647 271° West 406 467 36,000  Level Chicago Center
Thu 09:41:43 PM 41.2122 -84.8169 271° West 409 471 36,000 48 Level Chicago Center
Thu 09:42:45 PM 41.2133 -84.9717 271° West 412 474 36,100 48 Climbing Chicago Center
Thu 09:43:47 PM 41.2147 -85.1269 271° West 415 478 36,100  Level Chicago Center
Thu 09:44:49 PM 41.2147 -85.2811 270° West 416 479 36,100  Level Chicago Center
Thu 09:45:51 PM 41.2161 -85.4681 271° West 418 481 36,100 -49 Level Chicago Center
Thu 09:46:52 PM 41.2169 -85.6228 270° West 418 481 36,000 -49 Descending Chicago Center
Thu 09:47:54 PM 41.2156 -85.7761 269° West 417 480 36,000  Level Chicago Center
Thu 09:48:56 PM 41.2156 -85.9286 270° West 415 478 36,000  Level Chicago Center
Thu 09:49:58 PM 41.2172 -86.0814 271° West 414 476 36,000  Level Chicago Center
Thu 09:51:00 PM 41.2167 -86.2331 270° West 413 475 36,000  Level Chicago Center
Thu 09:52:02 PM 41.2161 -86.3858 270° West 412 474 36,000  Level Chicago Center
Thu 09:53:03 PM 41.2158 -86.5378 270° West 410 472 36,000  Level Chicago Center
Thu 09:54:05 PM 41.2144 -86.7208 269° West 411 473 36,000  Level Chicago Center
Thu 09:55:07 PM 41.2136 -86.8625 270° West 413 475 36,000  Level Chicago Center
Thu 09:56:09 PM 41.2122 -87.0153 269° West 413 475 36,000  Level Chicago Center
Thu 09:57:10 PM 41.2114 -87.1672 270° West 412 474 36,000  Level Chicago Center
Thu 09:58:12 PM 41.2094 -87.3508 269° West 412 474 36,000  Level Chicago Center
Thu 09:59:14 PM 41.2058 -87.5039 268° West 413 475 36,000  Level Chicago Center
Thu 10:00:15 PM 41.2039 -87.6578 269° West 414 476 36,000  Level Chicago Center
Thu 10:01:17 PM 41.2017 -87.8128 269° West 416 479 36,000 48 Level Chicago Center
Thu 10:02:19 PM 41.1978 -87.9681 268° West 416 479 36,100 49 Climbing Chicago Center
Thu 10:03:20 PM 41.1947 -88.1258 269° West 417 480 36,100 -49 Level Chicago Center
Thu 10:04:22 PM 41.1933 -88.2814 269° West 417 480 36,000 -48 Descending Chicago Center
Thu 10:05:24 PM 41.1900 -88.4361 268° West 418 481 36,000  Level Chicago Center
Thu 10:06:25 PM 41.1858 -88.5908 268° West 418 481 36,000  Level Chicago Center
Thu 10:07:27 PM 41.1828 -88.7464 269° West 418 481 36,000  Level Chicago Center
Thu 10:08:29 PM 41.1797 -88.9331 269° West 420 483 36,000  Level Chicago Center
Thu 10:09:30 PM 41.1756 -89.0881 268° West 420 483 36,000  Level Chicago Center
Thu 10:10:32 PM 41.1700 -89.2486 267° West 420 483 36,000  Level Chicago Center
Thu 10:11:33 PM 41.1394 -89.3994 255° West 429 494 36,000  Level Chicago Center
Thu 10:12:35 PM 41.1022 -89.5475 252° West 428 493 36,000  Level Chicago Center
Thu 10:13:36 PM 41.0664 -89.6958 252° West 427 491 36,000  Level Chicago Center
Thu 10:14:38 PM 41.0294 -89.8431 252° West 427 491 36,000  Level Chicago Center
Thu 10:15:39 PM 40.9942 -89.9878 252° West 425 489 36,000  Level Chicago Center
Thu 10:16:41 PM 40.9467 -90.1633 250° West 431 496 36,000 49 Level Chicago Center
Thu 10:17:42 PM 40.9117 -90.3125 253° West 433 498 36,100 49 Climbing Chicago Center
Thu 10:18:43 PM 40.8742 -90.4583 251° West 426 490 36,100 -49 Level Chicago Center
Thu 10:19:45 PM 40.8369 -90.6031 251° West 422 486 36,000 -49 Descending Chicago Center
Thu 10:20:46 PM 40.7989 -90.7461 251° West 418 481 36,000  Level Chicago Center
Thu 10:21:48 PM 40.7625 -90.8908 252° West 418 481 36,000  Level Chicago Center
Thu 10:22:49 PM 40.7247 -91.0342 251° West 418 481 36,000 49 Level Chicago Center
Thu 10:23:51 PM 40.6872 -91.1786 251° West 417 480 36,100 49 Climbing Chicago Center
Thu 10:24:52 PM 40.6422 -91.3425 250° West 417 480 36,100 -49 Level Chicago Center
Thu 10:25:54 PM 40.6047 -91.4850 251° West 417 480 36,000 -49 Descending Chicago Center
Thu 10:26:55 PM 40.5669 -91.6253 251° West 414 476 36,000  Level Chicago Center
Thu 10:27:56 PM 40.5292 -91.7681 251° West 414 476 36,000  Level Chicago Center
Thu 10:28:47 PM 40.4981 -91.8814 250° West 415 478 36,000  Level Kansas City Center
Thu 10:29:47 PM 40.4597 -92.0233 250° West 415 478 36,000 49 Level Kansas City Center
Thu 10:30:49 PM 40.4122 -92.1942 250° West 416 479 36,100 44 Climbing Kansas City Center
Thu 10:32:02 PM 40.3661 -92.3642 250° West 416 479 36,100 -49 Level Chicago Center
Thu 10:32:52 PM 40.3378 -92.4650 250° West 416 479 36,000 -54 Descending Kansas City Center
Thu 10:33:54 PM 40.2950 -92.6158 250° West 408 470 36,000  Level Kansas City Center
Thu 10:34:55 PM 40.2561 -92.7558 250° West 409 471 36,000 49 Level Kansas City Center
Thu 10:35:56 PM 40.2158 -92.8983 250° West 413 475 36,100 49 Climbing Kansas City Center
Thu 10:36:58 PM 40.1739 -93.0464 250° West 411 473 36,100 -50 Level Kansas City Center
Thu 10:37:57 PM 40.1356 -93.1825 250° West 407 468 36,000 -49 Descending Kansas City Center
Thu 10:39:01 PM 40.0975 -93.3197 250° West 407 468 36,000  Level Kansas City Center
Thu 10:40:01 PM 40.0558 -93.4561 248° West 406 467 36,000 49 Level Kansas City Center
Thu 10:41:03 PM 40.0103 -93.6244 251° West 408 470 36,100 49 Climbing Kansas City Center
Thu 10:42:03 PM 39.9669 -93.7633 248° West 411 473 36,100 -50 Level Kansas City Center
Thu 10:43:04 PM 39.9244 -93.9039 249° West 418 481 36,000 -48 Descending Kansas City Center
Thu 10:44:08 PM 39.8839 -94.0431 249° West 418 481 36,000  Level Kansas City Center
Thu 10:45:09 PM 39.8444 -94.1789 249° West 415 478 36,000  Level Kansas City Center
Thu 10:46:10 PM 39.8033 -94.3189 249° West 415 478 36,000  Level Kansas City Center
Thu 10:47:10 PM 39.7536 -94.4858 249° West 415 478 36,000  Level Kansas City Center
Thu 10:48:12 PM 39.7117 -94.6253 249° West 415 478 36,000  Level Kansas City Center
Thu 10:49:15 PM 39.6706 -94.7631 249° West 414 476 36,000  Level Kansas City Center
Thu 10:50:16 PM 39.6292 -94.8997 249° West 413 475 36,000  Level Kansas City Center
Thu 10:51:17 PM 39.5892 -95.0344 249° West 408 470 36,000  Level Kansas City Center
Thu 10:52:18 PM 39.5406 -95.1892 248° West 408 470 36,000  Level Kansas City Center
Thu 10:53:19 PM 39.4978 -95.3233 248° West 409 471 36,000  Level Kansas City Center
Thu 10:54:23 PM 39.4533 -95.4658 248° West 409 471 36,000  Level Kansas City Center
Thu 10:55:24 PM 39.4139 -95.5997 249° West 409 471 36,000 49 Level Kansas City Center
Thu 10:56:25 PM 39.3708 -95.7356 248° West 410 472 36,100 50 Climbing Kansas City Center
Thu 10:57:25 PM 39.3278 -95.8722 248° West 410 472 36,100 -49 Level Kansas City Center
Thu 10:58:28 PM 39.2842 -96.0078 247° West 411 473 36,000 -49 Descending Kansas City Center
Thu 10:59:27 PM 39.2408 -96.1428 248° West 411 473 36,000  Level Kansas City Center
Thu 11:00:31 PM 39.1892 -96.3050 248° West 410 472 36,000  Level Kansas City Center
Thu 11:01:32 PM 39.1458 -96.4414 248° West 410 472 36,000 49 Level Kansas City Center
Thu 11:02:34 PM 39.1008 -96.5789 247° West 415 478 36,100 50 Climbing Kansas City Center
Thu 11:03:33 PM 39.0572 -96.7164 248° West 416 479 36,100 -49 Level Kansas City Center
Thu 11:04:37 PM 39.0128 -96.8508 247° West 415 478 36,000 -48 Descending Kansas City Center
Thu 11:05:37 PM 38.9661 -96.9936 247° West 410 472 36,000  Level Kansas City Center
Thu 11:06:38 PM 38.9231 -97.1258 247° West 406 467 36,000  Level Kansas City Center
Thu 11:07:41 PM 38.8794 -97.2578 247° West 404 465 36,000 48 Level Kansas City Center
Thu 11:08:43 PM 38.8358 -97.3900 247° West 404 465 36,100  Climbing Kansas City Center
Thu 11:09:43 PM 38.7850 -97.5419 247° West 404 465 36,000  Descending Kansas City Center
Thu 11:10:44 PM 38.7392 -97.6733 246° West 404 465 36,100  Climbing Kansas City Center
Thu 11:11:45 PM 38.6939 -97.8100 247° West 404 465 36,000  Descending Kansas City Center
Thu 11:12:49 PM 38.6508 -97.9408 247° West 404 465 36,100 48 Climbing Kansas City Center
Thu 11:13:50 PM 38.6058 -98.0728 246° West 399 459 36,100 -49 Level Kansas City Center
Thu 11:14:52 PM 38.5633 -98.1956 246° West 396 456 36,000 -49 Descending Kansas City Center
Thu 11:15:53 PM 38.5208 -98.3208 247° West 391 450 36,000  Level Kansas City Center
Thu 11:16:55 PM 38.4772 -98.4461 246° West 391 450 36,000  Level Kansas City Center
Thu 11:17:57 PM 38.4247 -98.5972 246° West 390 449 36,000 49 Level Kansas City Center
Thu 11:18:57 PM 38.3811 -98.7239 246° West 391 450 36,100 50 Climbing Kansas City Center
Thu 11:19:58 PM 38.3378 -98.8508 247° West 391 450 36,100  Level Kansas City Center
Thu 11:20:58 PM 38.2925 -98.9794 246° West 395 455 36,100 -48 Level Kansas City Center
Thu 11:22:02 PM 38.2472 -99.1053 245° Southwest 395 455 36,000 -48 Descending Kansas City Center
Thu 11:23:02 PM 38.2025 -99.2314 246° West 395 455 36,000  Level Kansas City Center
Thu 11:24:04 PM 38.1581 -99.3567 246° West 394 453 36,000  Level Kansas City Center
Thu 11:25:06 PM 38.1122 -99.4814 245° Southwest 393 452 36,000  Level Kansas City Center
Thu 11:26:07 PM 38.0567 -99.6331 245° Southwest 392 451 36,000  Level Kansas City Center
Thu 11:27:07 PM 38.0144 -99.7514 246° West 390 449 36,000  Level Kansas City Center
Thu 11:28:10 PM 37.9725 -99.8725 246° West 390 449 36,000  Level Kansas City Center
Thu 11:29:11 PM 37.9208 -100.0119 245° Southwest 390 449 36,000 49 Level Kansas City Center
Thu 11:30:13 PM 37.8767 -100.1331 245° Southwest 391 450 36,100 49 Climbing Kansas City Center
Thu 11:31:14 PM 37.8250 -100.2744 245° Southwest 393 452 36,100  Level Kansas City Center
Thu 11:32:14 PM 37.7806 -100.3953 245° Southwest 394 453 36,100 -50 Level Kansas City Center
Thu 11:33:15 PM 37.7367 -100.5131 245° Southwest 394 453 36,000 -49 Descending Kansas City Center
Thu 11:34:16 PM 37.6908 -100.6383 245° Southwest 394 453 36,000  Level Kansas City Center
Thu 11:35:18 PM 37.6439 -100.7625 245° Southwest 393 452 36,000  Level Kansas City Center
Thu 11:36:18 PM 37.5836 -100.9181 244° Southwest 407 468 36,000  Level Kansas City Center
Thu 11:37:21 PM 37.5364 -101.0461 245° Southwest 406 467 36,000 49 Level Kansas City Center
Thu 11:38:21 PM 37.4914 -101.1700 245° Southwest 398 458 36,100  Climbing Kansas City Center
Thu 11:39:25 PM 37.4456 -101.2914 245° Southwest 398 458 36,000 -49 Descending Kansas City Center
Thu 11:40:23 PM 37.3919 -101.4325 244° Southwest 398 458 36,000  Level Kansas City Center
Thu 11:41:27 PM 37.3458 -101.5528 244° Southwest 398 458 36,000  Level Kansas City Center
Thu 11:42:29 PM 37.2997 -101.6731 244° Southwest 398 458 36,000  Level Kansas City Center
Thu 11:43:28 PM 37.2456 -101.8128 244° Southwest 398 458 36,000  Level Kansas City Center
Thu 11:44:31 PM 37.1992 -101.9331 244° Southwest 398 458 36,000  Level Kansas City Center
Thu 11:45:30 PM 37.1458 -102.0736 245° Southwest 399 459 36,000  Level Kansas City Center
Thu 11:46:09 PM 37.1139 -102.1531 243° Southwest 400 460 36,000  Level Albuquerque Center
Thu 11:47:10 PM 37.0672 -102.2708 244° Southwest 399 459 36,000  Level Albuquerque Center
Thu 11:48:12 PM 37.0133 -102.4092 244° Southwest 398 458 36,000  Level Albuquerque Center
Thu 11:49:13 PM 36.9658 -102.5331 244° Southwest 398 458 36,000  Level Albuquerque Center
Thu 11:50:15 PM 36.9147 -102.6581 243° Southwest 399 459 36,000  Level Albuquerque Center
Thu 11:51:16 PM 36.8667 -102.7822 244° Southwest 399 459 36,000  Level Albuquerque Center
Thu 11:52:18 PM 36.8164 -102.9081 244° Southwest 400 460 36,000  Level Albuquerque Center
Thu 11:53:20 PM 36.7653 -103.0347 243° Southwest 406 467 36,000  Level Albuquerque Center
Thu 11:54:21 PM 36.7136 -103.1597 243° Southwest 406 467 36,000 244 Level Albuquerque Center
Thu 11:55:23 PM 36.6628 -103.2861 243° Southwest 406 467 36,500 927 Climbing Albuquerque Center
Thu 11:56:24 PM 36.6058 -103.4261 243° Southwest 406 467 37,900 732 Climbing Albuquerque Center
Thu 11:57:26 PM 36.5544 -103.5492 243° Southwest 405 466 38,000 49 Climbing Albuquerque Center
Thu 11:58:27 PM 36.5033 -103.6742 243° Southwest 404 465 38,000  Level Albuquerque Center
Thu 11:59:29 PM 36.4508 -103.7986 242° Southwest 404 465 38,000  Level Albuquerque Center
Fri 12:00:30 AM 36.4006 -103.9228 243° Southwest 404 465 38,000  Level Albuquerque Center
Fri 12:01:32 AM 36.3400 -104.0653 242° Southwest 401 461 38,000  Level Albuquerque Center
Fri 12:02:33 AM 36.2881 -104.1875 242° Southwest 401 461 38,000  Level Albuquerque Center
Fri 12:03:35 AM 36.2364 -104.3103 242° Southwest 401 461 38,000  Level Albuquerque Center
Fri 12:04:36 AM 36.1828 -104.4339 242° Southwest 401 461 38,000 49 Level Albuquerque Center
Fri 12:05:38 AM 36.1300 -104.5581 242° Southwest 402 463 38,100  Climbing Albuquerque Center
Fri 12:06:39 AM 36.0764 -104.6819 242° Southwest 404 465 38,000  Descending Albuquerque Center
Fri 12:07:40 AM 36.0233 -104.8072 242° Southwest 406 467 38,100  Climbing Albuquerque Center
Fri 12:08:42 AM 35.9689 -104.9308 241° Southwest 407 468 38,000 -49 Descending Albuquerque Center
Fri 12:09:43 AM 35.9150 -105.0567 242° Southwest 408 470 38,000  Level Albuquerque Center
Fri 12:10:45 AM 35.8608 -105.1794 241° Southwest 408 470 38,000  Level Albuquerque Center
Fri 12:11:45 AM 35.8067 -105.3036 242° Southwest 408 470 38,000  Level Albuquerque Center
Fri 12:12:47 AM 35.7436 -105.4478 242° Southwest 408 470 38,000  Level Albuquerque Center
Fri 12:13:48 AM 35.6922 -105.5625 241° Southwest 408 470 38,000  Level Albuquerque Center
Fri 12:14:49 AM 35.6381 -105.6869 242° Southwest 409 471 38,000 49 Level Albuquerque Center
Fri 12:15:51 AM 35.5869 -105.8017 241° Southwest 410 472 38,100 49 Climbing Albuquerque Center
Fri 12:16:52 AM 35.5272 -105.9369 242° Southwest 418 481 38,100 -49 Level Albuquerque Center
Fri 12:17:53 AM 35.4803 -106.0678 246° West 420 483 38,000  Descending Albuquerque Center
Fri 12:18:54 AM 35.4433 -106.2297 254° West 421 484 38,100  Climbing Albuquerque Center
Fri 12:19:55 AM 35.4117 -106.3658 254° West 420 483 38,000 -49 Descending Albuquerque Center
Fri 12:20:56 AM 35.3783 -106.5017 253° West 420 483 38,000  Level Albuquerque Center
Fri 12:21:57 AM 35.3447 -106.6381 253° West 420 483 38,000  Level Albuquerque Center
Fri 12:22:58 AM 35.3092 -106.7844 253° West 420 483 38,000  Level Albuquerque Center
Fri 12:23:59 AM 35.2758 -106.9183 253° West 417 480 38,000  Level Albuquerque Center
Fri 12:25:00 AM 35.2422 -107.0536 253° West 417 480 38,000  Level Albuquerque Center
Fri 12:26:01 AM 35.2078 -107.1881 253° West 417 480 38,000  Level Albuquerque Center
Fri 12:27:02 AM 35.1756 -107.3192 253° West 418 481 38,000 49 Level Albuquerque Center
Fri 12:28:03 AM 35.1369 -107.4728 253° West 420 483 38,100 49 Climbing Albuquerque Center
Fri 12:29:04 AM 35.0994 -107.6153 252° West 433 498 38,100  Level Albuquerque Center
Fri 12:30:05 AM 35.0644 -107.7528 253° West 432 497 38,100 -49 Level Albuquerque Center
Fri 12:31:06 AM 35.0289 -107.8886 252° West 428 493 38,000 -49 Descending Albuquerque Center
Fri 12:32:07 AM 34.9933 -108.0236 252° West 423 487 38,000  Level Albuquerque Center
Fri 12:33:08 AM 34.9650 -108.1611 256° West 423 487 38,000  Level Albuquerque Center
Fri 12:34:09 AM 34.9325 -108.3083 255° West 422 486 38,000  Level Albuquerque Center
Fri 12:35:10 AM 34.9036 -108.4394 255° West 420 483 38,000  Level Albuquerque Center
Fri 12:36:11 AM 34.8736 -108.5725 255° West 420 483 38,000  Level Albuquerque Center
Fri 12:37:12 AM 34.8403 -108.7258 255° West 420 483 38,000  Level Albuquerque Center
Fri 12:38:13 AM 34.8103 -108.8558 254° West 420 483 38,000 49 Level Albuquerque Center
Fri 12:39:14 AM 34.7794 -108.9858 254° West 418 481 38,100  Climbing Albuquerque Center
Fri 12:40:14 AM 34.7456 -109.1411 255° West 419 482 38,000 -50 Descending Albuquerque Center
Fri 12:41:15 AM 34.7150 -109.2736 254° West 422 486 38,000  Level Albuquerque Center
Fri 12:42:16 AM 34.6847 -109.4050 254° West 422 486 38,000  Level Albuquerque Center
Fri 12:43:17 AM 34.6492 -109.5589 254° West 422 486 38,000  Level Albuquerque Center
Fri 12:44:18 AM 34.6211 -109.6911 256° West 422 486 38,000  Level Albuquerque Center
Fri 12:45:19 AM 34.6142 -109.8300 267° West 426 490 38,000  Level Albuquerque Center
Fri 12:46:20 AM 34.6036 -109.9883 265° West 424 488 38,000  Level Albuquerque Center
Fri 12:47:20 AM 34.5950 -110.1247 266° West 423 487 38,000  Level Albuquerque Center
Fri 12:48:21 AM 34.5886 -110.2667 267° West 429 494 38,000  Level Albuquerque Center
Fri 12:49:22 AM 34.5783 -110.4253 266° West 424 488 38,000  Level Albuquerque Center
Fri 12:50:23 AM 34.5694 -110.5611 265° West 425 489 38,000  Level Albuquerque Center
Fri 12:51:24 AM 34.5594 -110.6967 265° West 424 488 38,000 49 Level Albuquerque Center
Fri 12:52:25 AM 34.5467 -110.8458 264° West 425 489 38,100 50 Climbing Albuquerque Center
Fri 12:53:25 AM 34.5367 -110.9906 265° West 430 495 38,100 -50 Level Albuquerque Center
Fri 12:54:26 AM 34.5275 -111.1328 266° West 429 494 38,000 -49 Descending Albuquerque Center
Fri 12:55:27 AM 34.5178 -111.2744 265° West 428 493 38,000  Level Albuquerque Center
Fri 12:56:28 AM 34.5069 -111.4164 265° West 427 491 38,000  Level Albuquerque Center
Fri 12:57:29 AM 34.4972 -111.5578 265° West 427 491 38,000  Level Albuquerque Center
Fri 12:58:29 AM 34.4844 -111.7281 265° West 427 491 38,000  Level Albuquerque Center
Fri 12:59:30 AM 34.4739 -111.8697 265° West 426 490 38,000  Level Albuquerque Center
Fri 01:00:31 AM 34.4619 -112.0092 264° West 425 489 38,000  Level Albuquerque Center
Fri 01:01:31 AM 34.4517 -112.1481 265° West 423 487 38,000  Level Albuquerque Center
Fri 01:02:32 AM 34.4411 -112.2867 265° West 421 484 38,000  Level Albuquerque Center
Fri 01:03:33 AM 34.4297 -112.4264 264° West 420 483 38,000 49 Level Albuquerque Center
Fri 01:04:34 AM 34.4183 -112.5669 264° West 420 483 38,100  Climbing Albuquerque Center
Fri 01:05:34 AM 34.4061 -112.7075 264° West 420 483 38,000 -50 Descending Albuquerque Center
Fri 01:06:35 AM 34.3950 -112.8500 265° West 422 486 38,000  Level Albuquerque Center
Fri 01:07:36 AM 34.3833 -112.9908 264° West 422 486 38,000  Level Albuquerque Center
Fri 01:08:37 AM 34.3708 -113.1339 264° West 424 488 38,000  Level Albuquerque Center
Fri 01:09:37 AM 34.3575 -113.2783 264° West 428 493 38,000 50 Level Albuquerque Center
Fri 01:10:38 AM 34.3456 -113.4239 264° West 432 497 38,100  Climbing Albuquerque Center
Fri 01:11:39 AM 34.3283 -113.6006 263° West 438 504 38,000 -50 Descending Albuquerque Center
Fri 01:12:39 AM 34.3164 -113.7308 264° West 438 504 38,000  Level Albuquerque Center
Fri 01:13:40 AM 34.3017 -113.8778 263° West 438 504 38,000  Level Albuquerque Center
Fri 01:14:41 AM 34.2894 -114.0211 264° West 435 501 38,000  Level Albuquerque Center
Fri 01:15:41 AM 34.2747 -114.1664 263° West 435 501 38,000 -61 Level Albuquerque Center
Fri 01:16:20 AM 34.2650 -114.2822 264° West 433 498 37,900  Descending Los Angeles Center
Fri 01:17:22 AM 34.2522 -114.4267 264° West 432 497 38,000 49 Climbing Los Angeles Center
Fri 01:18:23 AM 34.2375 -114.5697 263° West 432 497 38,000  Level Los Angeles Center
Fri 01:19:25 AM 34.2233 -114.7119 263° West 431 496 38,000  Level Los Angeles Center
Fri 01:20:26 AM 34.2086 -114.8553 263° West 431 496 38,000  Level Los Angeles Center
Fri 01:21:27 AM 34.1944 -114.9950 263° West 425 489 38,000 -49 Level Los Angeles Center
Fri 01:22:29 AM 34.1803 -115.1350 263° West 421 484 37,900  Descending Los Angeles Center
Fri 01:23:30 AM 34.1658 -115.2728 263° West 419 482 38,000 49 Climbing Los Angeles Center
Fri 01:24:31 AM 34.1506 -115.4078 262° West 412 474 38,000  Level Los Angeles Center
Fri 01:25:33 AM 34.1322 -115.5731 262° West 412 474 38,000  Level Los Angeles Center
Fri 01:26:34 AM 34.1197 -115.7147 264° West 420 483 38,000 -97 Level Los Angeles Center
Fri 01:27:37 AM 34.1014 -115.8522 261° West 419 482 37,800 -537 Descending Los Angeles Center
Fri 01:28:37 AM 34.0800 -115.9867 259° West 414 476 36,900 -1,339 Descending Los Angeles Center
Fri 01:29:38 AM 34.0600 -116.1253 260° West 415 478 35,100 -2,410 Descending Los Angeles Center
Fri 01:30:39 AM 34.0386 -116.2667 260° West 425 489 32,000 -2,927 Descending Los Angeles Center
Fri 01:31:41 AM 34.0167 -116.4114 260° West 437 503 29,100 -2,634 Descending Los Angeles Center
Fri 01:32:42 AM 34.0000 -116.5553 262° West 439 505 26,600 -2,705 Descending Los Angeles Center
Fri 01:33:43 AM 33.9864 -116.7200 264° West 429 494 23,600 -2,683 Descending Los Angeles Center
Fri 01:34:45 AM 33.9744 -116.8678 264° West 420 483 21,100 -2,464 Descending Los Angeles Center
Fri 01:35:35 AM 33.9667 -116.9833 265° West 395 455 19,000 -2,365 Descending Southern California TRACON
Fri 01:36:29 AM 33.9500 -117.1000 260° West 394 453 17,000 -1,737 Descending Southern California TRACON
Fri 01:37:29 AM 33.9500 -117.2167 270° West 363 418 15,700 -1,050 Descending Southern California TRACON
Fri 01:38:29 AM 33.9333 -117.3333 260° West 335 386 14,900 -1,158 Descending Southern California TRACON
Fri 01:39:23 AM 33.9500 -117.4333 281° West 315 362 13,500 -1,526 Descending Southern California TRACON
Fri 01:40:23 AM 33.9833 -117.5167 296° West 304 350 12,000 -1,286 Descending Southern California TRACON
Fri 01:41:29 AM 34.0167 -117.6333 289° West 349 402 10,800 -1,190 Descending Southern California TRACON
Fri 01:42:29 AM 34.0000 -117.7333 259° West 282 325 9,500 -1,300 Descending Southern California TRACON
Fri 01:43:29 AM 34.0000 -117.8167 270° West 282 325 8,200 -1,400 Descending Southern California TRACON
Fri 01:44:29 AM 33.9833 -117.9167 259° West 280 322 6,700 -1,438 Descending Southern California TRACON
Fri 01:45:30 AM 33.9667 -118.0000 256° West 275 316 5,300 -1,388 Descending Southern California TRACON
Fri 01:46:30 AM 33.9667 -118.0833 270° West 262 302 3,900 -1,400 Descending Southern California TRACON
Fri 01:47:00 AM 33.9631 -118.1297 265° West 267 307 3,200 -791 Descending Los Angeles Center
Fri 01:48:01 AM 33.9547 -118.2119 263° West 260 299 2,700 -639 Descending Los Angeles Center
Fri 01:49:02 AM 33.9472 -118.2811 263° West 234 269 1,900 -836 Descending Los Angeles Center
Fri 01:50:03 AM 33.9439 -118.3333 266° West 184 212 1,000 -829 Descending Los Angeles Center
Fri 01:51:05 AM 33.9394 -118.3767 263° West 152 175 200 -439 Descending Los Angeles Center
Fri 01:52:06 AM 33.9347 -118.4194 262° West 148 170 100 -98 Descending Los Angeles Center

Login

Don't have an account? Register now (free) for customized features, flight alerts, and more!